Home   Weather   India   Moga   Past weeks
Flag for India

Past Weather in Moga, Punjab, India — Yesterday and Last 2 Weeks

Currently: 77 °F. Passing clouds. (Weather station: Amritsar Airport, India). See more current weather

Past Weather in Moga — Graph

°F

Moga Temperature Yesterday

Maximum temperature yesterday: 95 °F (at 2:30 pm)
Minimum temperature yesterday: 72 °F (at 2:00 am)
Average temperature yesterday: 82 °F

High & Low Weather Summary for the Past Weeks

 TemperatureHumidityPressure
High97 °F (Apr 13, 1:00 pm)100% (Apr 7, 3:30 am)29.98 "Hg (Apr 7, 3:30 am)
Low52 °F (Apr 3, 4:30 am)8% (Apr 2, 3:00 pm)29.53 "Hg (Mar 30, 3:00 am)
Average74 °F40%29.80 "Hg
* Reported Mar 29 9:30 pm — Apr 13 10:00 pm, Moga. Weather by CustomWeather, © 2021

Note: Actual official high and low records may vary slightly from our data, if they occured in-between our weather recording intervals... More about our weather records

Moga Weather History for the Previous 24 Hours

Scroll right to see more
 ConditionsComfort  
Time TempWeatherWind HumidityBarometerVisibility
10:00 pm
Tue, Apr 13
75 °FPassing clouds.No wind44%29.86 "Hg3 mi
9:00 pm81 °FPassing clouds.6 mph34%29.83 "Hg3 mi
8:30 pm81 °FPassing clouds.6 mph34%29.83 "Hg3 mi
8:00 pm82 °FPassing clouds.6 mph35%29.83 "Hg3 mi
7:30 pm84 °FPassing clouds.6 mph29%29.80 "Hg3 mi
7:00 pm86 °FScattered clouds.5 mph29%29.80 "Hg3 mi
6:30 pm90 °FScattered clouds.6 mph24%29.80 "Hg3 mi
6:00 pm93 °FPassing clouds.8 mph20%29.80 "Hg4 mi
5:30 pm95 °FPassing clouds.9 mph19%29.80 "Hg4 mi
4:30 pm97 °FClear.10 mph17%29.80 "Hg4 mi
4:00 pm97 °FClear.14 mph17%29.83 "Hg4 mi
3:30 pm97 °FClear.14 mph17%29.83 "Hg4 mi
3:00 pm97 °FPassing clouds.14 mph16%29.83 "Hg4 mi
2:30 pm97 °FPassing clouds.14 mph18%29.86 "Hg4 mi
2:00 pm97 °FPassing clouds.14 mph17%29.86 "Hg4 mi
1:30 pm97 °FPassing clouds.12 mph17%29.86 "Hg4 mi
1:00 pm97 °FPassing clouds.12 mph17%29.89 "Hg4 mi
12:30 pm95 °FPassing clouds.10 mph18%29.89 "Hg4 mi
12:00 pm93 °FPassing clouds.10 mph19%29.89 "Hg4 mi
11:30 am93 °FScattered clouds.8 mph19%29.92 "Hg4 mi
11:00 am90 °FScattered clouds.5 mph22%29.92 "Hg4 mi
10:30 am88 °FScattered clouds.5 mph25%29.92 "Hg4 mi
10:00 am84 °FScattered clouds.2 mph27%29.92 "Hg4 mi
9:30 am81 °FBroken clouds.2 mph32%29.92 "Hg3 mi
9:00 am79 °FBroken clouds.6 mph32%29.89 "Hg2 mi
8:30 am75 °FScattered clouds.7 mph44%29.89 "Hg2 mi
8:00 am70 °FScattered clouds.2 mph53%29.89 "Hg2 mi
7:30 am68 °FScattered clouds.2 mph56%29.89 "Hg2 mi
7:00 am66 °FScattered clouds.No wind60%29.89 "Hg2 mi
6:30 am64 °FPassing clouds.No wind60%29.89 "Hg2 mi
6:00 am68 °FPassing clouds.2 mph53%29.89 "Hg2 mi
5:00 am64 °FPassing clouds.5 mph60%29.89 "Hg2 mi
4:30 am68 °FPassing clouds.2 mph46%29.89 "Hg2 mi
4:00 am73 °FPassing clouds.5 mph36%29.89 "Hg2 mi
3:30 am75 °FPassing clouds.7 mph31%29.89 "Hg2 mi
3:00 am70 °FPassing clouds.No wind46%29.89 "Hg2 mi
2:30 am68 °FHaze.5 mph53%29.89 "Hg2 mi
2:00 am70 °FHaze.5 mph50%29.89 "Hg2 mi
1:30 am70 °FHaze.3 mph50%29.92 "Hg2 mi
1:00 am70 °FHaze.3 mph50%29.92 "Hg2 mi
12:30 am72 °FHaze.2 mph47%29.92 "Hg2 mi
12:00 am73 °FHaze.No wind47%29.92 "Hg2 mi
11:30 pm
Mon, Apr 12
73 °FHaze.5 mph47%29.92 "Hg2 mi
11:00 pm77 °FHaze.5 mph36%29.92 "Hg2 mi
Weather by CustomWeather, © 2021

See weather overview